createdAt,value
2023-01-20T00:01:52.797Z,73.61
2023-01-20T00:04:19.459Z,74.92
2023-01-20T00:06:46.063Z,72.96
2023-01-20T00:09:14.456Z,73.87
2023-01-20T00:11:40.723Z,74.23
2023-01-20T00:14:10.942Z,73.66
2023-01-20T00:16:37.275Z,72.90
2023-01-20T00:19:03.638Z,72.54
2023-01-20T00:21:29.993Z,73.10
2023-01-20T00:23:56.609Z,72.42
2023-01-20T00:26:24.000Z,72.35
2023-01-20T00:28:53.035Z,72.52
2023-01-20T00:31:25.769Z,72.89
2023-01-20T00:33:53.054Z,73.41
2023-01-20T00:36:19.989Z,72.88
2023-01-20T00:38:46.604Z,72.42
2023-01-20T00:41:13.274Z,74.12
2023-01-20T00:43:39.571Z,74.17
2023-01-20T00:46:06.339Z,74.71
2023-01-20T00:48:33.189Z,74.84
2023-01-20T00:51:00.018Z,74.83
2023-01-20T00:53:26.542Z,73.97
2023-01-20T00:55:52.809Z,74.80
2023-01-20T00:58:19.112Z,72.70
2023-01-20T01:00:49.638Z,73.37
2023-01-20T01:03:16.285Z,71.77
2023-01-20T01:05:42.789Z,72.96
2023-01-20T01:08:09.319Z,72.17
2023-01-20T01:10:35.808Z,72.11
2023-01-20T01:13:03.327Z,72.26
2023-01-20T01:15:29.679Z,72.80
2023-01-20T01:17:56.733Z,72.73
2023-01-20T01:20:23.147Z,72.48
2023-01-20T01:22:49.437Z,73.05
2023-01-20T01:25:15.850Z,73.89
2023-01-20T01:27:42.167Z,72.21
2023-01-20T01:30:08.797Z,72.73
2023-01-20T01:32:35.085Z,72.36
2023-01-20T01:35:01.448Z,73.40
2023-01-20T01:37:28.512Z,72.97
2023-01-20T01:39:54.784Z,72.79
2023-01-20T01:42:24.058Z,73.10
2023-01-20T01:45:09.186Z,74.03
2023-01-20T01:47:36.433Z,73.04
2023-01-20T01:50:03.225Z,73.55
2023-01-20T01:52:29.725Z,73.93
2023-01-20T01:54:56.212Z,73.66
2023-01-20T01:57:22.497Z,72.90
2023-01-20T01:59:48.969Z,72.82
2023-01-20T02:02:15.295Z,72.52
2023-01-20T02:04:43.458Z,73.32
2023-01-20T02:07:12.247Z,73.57
2023-01-20T02:09:38.591Z,73.63
2023-01-20T02:12:08.260Z,74.24
2023-01-20T02:14:35.932Z,72.74
2023-01-20T02:17:12.003Z,72.75
2023-01-20T02:19:57.402Z,73.07
2023-01-20T02:22:35.879Z,73.68
2023-01-20T02:25:02.152Z,72.42
2023-01-20T02:27:47.469Z,73.54
2023-01-20T02:30:25.160Z,72.36
2023-01-20T02:32:54.311Z,73.13
2023-01-20T02:35:24.367Z,73.59
2023-01-20T02:38:17.083Z,73.37
2023-01-20T02:40:49.480Z,74.87
2023-01-20T02:43:34.740Z,73.73
2023-01-20T02:46:01.082Z,73.74
2023-01-20T02:48:36.437Z,74.59
2023-01-20T02:51:07.529Z,74.63
2023-01-20T02:53:41.368Z,73.23
2023-01-20T02:56:08.718Z,73.88
2023-01-20T02:58:39.275Z,74.86
2023-01-20T03:01:08.778Z,75.31
2023-01-20T03:03:37.884Z,73.72
2023-01-20T03:06:07.665Z,74.74
2023-01-20T03:08:34.967Z,74.51
2023-01-20T03:11:05.878Z,74.31
2023-01-20T03:13:37.878Z,74.75
2023-01-20T03:16:12.339Z,73.47
2023-01-20T03:18:39.324Z,72.26
2023-01-20T03:21:07.440Z,73.16
2023-01-20T03:23:35.143Z,72.57
2023-01-20T03:26:04.631Z,72.41
2023-01-20T03:28:31.056Z,74.02
2023-01-20T03:30:58.192Z,72.98
2023-01-20T03:33:24.825Z,74.22
2023-01-20T03:35:51.832Z,74.79
2023-01-20T03:38:18.133Z,73.80
2023-01-20T03:40:48.617Z,75.31
2023-01-20T03:43:26.643Z,75.31
2023-01-20T03:45:57.250Z,75.23
2023-01-20T03:48:41.909Z,73.63
2023-01-20T03:51:12.603Z,73.25
2023-01-20T03:53:48.479Z,73.75
2023-01-20T03:56:18.627Z,74.14
2023-01-20T03:58:46.784Z,74.00
2023-01-20T04:01:17.814Z,74.50
2023-01-20T04:03:47.131Z,75.73
2023-01-20T04:06:14.783Z,75.06
2023-01-20T04:08:44.737Z,74.22
2023-01-20T04:11:11.173Z,75.56
2023-01-20T04:13:37.434Z,75.81
2023-01-20T04:16:08.960Z,74.61
2023-01-20T04:18:40.131Z,75.17
2023-01-20T04:21:06.643Z,74.44
2023-01-20T04:23:35.705Z,74.71
2023-01-20T04:26:02.076Z,74.41
2023-01-20T04:28:28.450Z,72.88
2023-01-20T04:30:54.861Z,73.77
2023-01-20T04:33:21.255Z,75.80
2023-01-20T04:35:47.557Z,74.07
2023-01-20T04:38:13.825Z,75.77
2023-01-20T04:40:40.146Z,73.97
2023-01-20T04:43:06.719Z,74.37
2023-01-20T04:45:33.040Z,74.08
2023-01-20T04:47:59.352Z,73.71
2023-01-20T04:50:25.619Z,72.22
2023-01-20T04:52:54.335Z,73.17
2023-01-20T04:55:20.683Z,73.67
2023-01-20T04:57:47.468Z,74.65
2023-01-20T05:00:19.778Z,73.43
2023-01-20T05:02:46.715Z,75.30
2023-01-20T05:05:13.428Z,74.96
2023-01-20T05:07:39.831Z,74.13
2023-01-20T05:10:06.467Z,73.48
2023-01-20T05:12:32.794Z,73.16
2023-01-20T05:14:59.055Z,74.17
2023-01-20T05:17:25.376Z,74.80
2023-01-20T05:19:51.672Z,73.77
2023-01-20T05:22:17.941Z,73.78
2023-01-20T05:24:44.266Z,74.61
2023-01-20T05:27:10.547Z,73.00
2023-01-20T05:29:36.840Z,75.00
2023-01-20T05:32:03.161Z,74.25
2023-01-20T05:34:29.477Z,74.54
2023-01-20T05:36:55.792Z,74.14
2023-01-20T05:39:22.164Z,72.91
2023-01-20T05:41:48.529Z,74.01
2023-01-20T05:44:15.124Z,73.41
2023-01-20T05:46:41.494Z,74.69
2023-01-20T05:49:07.795Z,73.57
2023-01-20T05:51:34.233Z,74.33
2023-01-20T05:54:00.572Z,73.69
2023-01-20T05:56:26.873Z,73.42
2023-01-20T05:58:56.331Z,72.79
2023-01-20T06:01:22.716Z,73.35
2023-01-20T06:03:49.052Z,73.39
2023-01-20T06:06:17.676Z,73.83
2023-01-20T06:08:44.878Z,72.38
2023-01-20T06:11:11.949Z,74.59
2023-01-20T06:13:39.565Z,72.74
2023-01-20T06:16:07.425Z,73.81
2023-01-20T06:18:34.220Z,74.21
2023-01-20T06:21:00.600Z,74.75
2023-01-20T06:23:27.288Z,73.73
2023-01-20T06:26:00.171Z,73.97
2023-01-20T06:28:26.483Z,72.51
2023-01-20T06:30:58.908Z,73.99
2023-01-20T06:33:25.192Z,72.37
2023-01-20T06:35:53.523Z,72.86
2023-01-20T06:38:19.867Z,73.27
2023-01-20T06:40:46.134Z,71.72
2023-01-20T06:43:12.416Z,72.66
2023-01-20T06:45:38.700Z,72.80
2023-01-20T06:48:05.073Z,73.41
2023-01-20T06:50:31.481Z,73.97
2023-01-20T06:52:57.761Z,73.42
2023-01-20T06:55:24.102Z,73.91
2023-01-20T06:57:50.394Z,74.12
2023-01-20T07:00:16.827Z,74.04
2023-01-20T07:02:43.149Z,73.99
2023-01-20T07:05:10.116Z,73.86
2023-01-20T07:07:36.447Z,75.06
2023-01-20T07:10:03.317Z,74.70
2023-01-20T07:12:29.635Z,74.40
2023-01-20T07:14:55.941Z,73.87
2023-01-20T07:17:22.218Z,73.13
2023-01-20T07:19:48.534Z,73.83
2023-01-20T07:22:14.807Z,74.60
2023-01-20T07:24:41.088Z,73.64
2023-01-20T07:27:07.375Z,72.65
2023-01-20T07:29:33.767Z,73.77
2023-01-20T07:32:00.113Z,73.80
2023-01-20T07:34:26.574Z,75.16
2023-01-20T07:36:55.606Z,73.97
2023-01-20T07:39:21.880Z,74.03
2023-01-20T07:41:51.110Z,72.51
2023-01-20T07:44:17.402Z,71.80
2023-01-20T07:46:43.707Z,72.16
2023-01-20T07:49:12.210Z,72.63
2023-01-20T07:51:39.745Z,71.97
2023-01-20T07:54:06.073Z,72.47
2023-01-20T07:56:32.515Z,72.10
2023-01-20T07:58:58.788Z,72.12
2023-01-20T08:01:26.663Z,72.54
2023-01-20T08:03:53.347Z,72.76
2023-01-20T08:06:20.551Z,72.40
2023-01-20T08:08:47.164Z,72.58
2023-01-20T08:11:14.296Z,73.53
2023-01-20T08:13:40.912Z,72.56
2023-01-20T08:16:08.367Z,72.91
2023-01-20T08:18:35.378Z,71.17
2023-01-20T08:21:06.327Z,71.86
2023-01-20T08:23:33.444Z,72.27
2023-01-20T08:26:01.975Z,71.24
2023-01-20T08:28:29.174Z,72.50
2023-01-20T08:30:56.033Z,71.32
2023-01-20T08:33:22.389Z,72.55
2023-01-20T08:35:48.705Z,72.08
2023-01-20T08:38:15.011Z,71.25
2023-01-20T08:40:41.968Z,71.18
2023-01-20T08:43:08.259Z,71.30
2023-01-20T08:45:34.544Z,71.55
2023-01-20T08:48:00.871Z,71.31
2023-01-20T08:50:27.135Z,72.50
2023-01-20T08:52:53.404Z,72.33
2023-01-20T08:55:19.765Z,71.37
2023-01-20T08:57:46.125Z,71.16
2023-01-20T09:00:13.757Z,71.65
2023-01-20T09:02:40.907Z,70.36
2023-01-20T09:05:08.638Z,70.25
2023-01-20T09:07:34.914Z,71.57
2023-01-20T09:10:01.239Z,71.25
2023-01-20T09:12:27.555Z,72.26
2023-01-20T09:14:56.321Z,71.77
2023-01-20T09:17:22.623Z,71.58
2023-01-20T09:19:48.926Z,71.52
2023-01-20T09:22:16.634Z,71.49
2023-01-20T09:24:43.025Z,71.10
2023-01-20T09:27:09.312Z,70.77
2023-01-20T09:29:36.657Z,71.83
2023-01-20T09:32:03.152Z,72.58
2023-01-20T09:34:30.747Z,72.00
2023-01-20T09:36:58.108Z,72.09
2023-01-20T09:39:43.173Z,70.64
2023-01-20T09:42:39.920Z,71.45
2023-01-20T09:45:24.598Z,72.20
2023-01-20T09:47:51.341Z,71.85
2023-01-20T09:50:47.112Z,71.20
2023-01-20T09:53:34.416Z,71.12
2023-01-20T09:56:08.790Z,71.09
2023-01-20T09:58:40.304Z,71.39
2023-01-20T10:01:12.474Z,71.63
2023-01-20T10:03:41.848Z,71.31
2023-01-20T10:06:14.234Z,72.59
2023-01-20T10:08:59.646Z,71.30
2023-01-20T10:11:34.773Z,71.21
2023-01-20T10:14:16.301Z,69.72
2023-01-20T10:16:50.476Z,70.09
2023-01-20T10:19:31.907Z,70.41
2023-01-20T10:22:04.787Z,71.14
2023-01-20T10:24:33.643Z,69.80
2023-01-20T10:27:03.842Z,71.16
2023-01-20T10:29:37.380Z,72.33
2023-01-20T10:32:23.946Z,71.64
2023-01-20T10:34:56.309Z,71.50
2023-01-20T10:37:23.565Z,71.36
2023-01-20T10:39:53.311Z,72.09
2023-01-20T10:42:20.072Z,71.64
2023-01-20T10:44:47.371Z,70.86
2023-01-20T10:47:36.805Z,72.00
2023-01-20T10:50:03.079Z,71.66
2023-01-20T10:52:29.383Z,71.12
2023-01-20T10:54:58.704Z,71.80
2023-01-20T10:57:25.154Z,72.47
2023-01-20T10:59:53.970Z,71.49
2023-01-20T11:02:29.376Z,68.77
2023-01-20T11:05:03.078Z,68.37
2023-01-20T11:07:32.366Z,70.76
2023-01-20T11:10:00.540Z,70.78
2023-01-20T11:12:30.089Z,71.32
2023-01-20T11:14:57.273Z,70.86
2023-01-20T11:17:23.578Z,71.25
2023-01-20T11:19:51.587Z,71.69
2023-01-20T11:22:29.650Z,71.74
2023-01-20T11:24:58.855Z,72.03
2023-01-20T11:27:31.502Z,71.37
2023-01-20T11:30:00.012Z,70.65
2023-01-20T11:32:31.447Z,69.64
2023-01-20T11:34:58.250Z,70.75
2023-01-20T11:37:42.425Z,70.24
2023-01-20T11:40:23.612Z,69.25
2023-01-20T11:42:50.838Z,69.50
2023-01-20T11:45:28.058Z,69.72
2023-01-20T11:48:06.513Z,69.14
2023-01-20T11:50:34.905Z,69.28
2023-01-20T11:53:19.611Z,69.64
2023-01-20T11:55:54.393Z,70.87
2023-01-20T11:58:22.334Z,70.44
2023-01-20T12:00:49.932Z,70.37
2023-01-20T12:03:34.379Z,69.91
2023-01-20T12:06:23.415Z,69.48
2023-01-20T12:08:56.249Z,69.69
2023-01-20T12:11:26.816Z,69.58
2023-01-20T12:14:19.174Z,71.26
2023-01-20T12:16:48.275Z,70.67
2023-01-20T12:19:18.050Z,70.84
2023-01-20T12:21:48.749Z,70.61
2023-01-20T12:24:21.642Z,69.54
2023-01-20T12:26:48.703Z,70.12
2023-01-20T12:29:14.970Z,70.12
2023-01-20T12:31:43.433Z,70.37
2023-01-20T12:34:14.585Z,70.98
2023-01-20T12:36:51.617Z,70.19
2023-01-20T12:39:36.467Z,70.84
2023-01-20T12:42:14.956Z,68.98
2023-01-20T12:44:47.077Z,69.72
2023-01-20T12:47:19.747Z,69.70
2023-01-20T12:50:06.686Z,68.08
2023-01-20T12:52:42.002Z,69.34
2023-01-20T12:55:17.288Z,69.12
2023-01-20T12:57:43.553Z,69.45
2023-01-20T13:00:16.356Z,67.98
2023-01-20T13:02:52.266Z,68.03
2023-01-20T13:05:18.634Z,68.21
2023-01-20T13:07:49.923Z,69.21
2023-01-20T13:10:26.132Z,69.47
2023-01-20T13:12:52.387Z,70.43
2023-01-20T13:15:22.772Z,70.04
2023-01-20T13:18:06.816Z,70.99
2023-01-20T13:20:34.745Z,70.83
2023-01-20T13:23:04.167Z,69.70
2023-01-20T13:25:31.014Z,69.98
2023-01-20T13:27:57.468Z,68.70
2023-01-20T13:30:47.857Z,68.37
2023-01-20T13:33:15.749Z,70.12
2023-01-20T13:35:44.767Z,71.04
2023-01-20T13:38:18.773Z,69.30
2023-01-20T13:40:45.585Z,70.08
2023-01-20T13:43:11.863Z,70.23
2023-01-20T13:45:39.140Z,70.06
2023-01-20T13:48:08.377Z,69.68
2023-01-20T13:50:37.454Z,70.89
2023-01-20T13:53:09.929Z,68.73
2023-01-20T13:55:45.485Z,68.96
2023-01-20T13:58:14.924Z,68.48
2023-01-20T14:00:41.550Z,69.64
2023-01-20T14:03:14.185Z,69.33
2023-01-20T14:05:40.727Z,68.49
2023-01-20T14:08:13.149Z,68.56
2023-01-20T14:10:39.706Z,68.98
2023-01-20T14:13:17.957Z,70.46
2023-01-20T14:15:48.211Z,70.02
2023-01-20T14:18:16.639Z,70.42
2023-01-20T14:20:43.490Z,70.49
2023-01-20T14:23:27.259Z,70.44
2023-01-20T14:25:57.485Z,70.27
2023-01-20T14:28:23.766Z,68.30
2023-01-20T14:30:50.965Z,68.59
2023-01-20T14:33:17.524Z,69.04
2023-01-20T14:35:44.689Z,69.52
2023-01-20T14:38:17.821Z,70.39
2023-01-20T14:40:44.214Z,69.21
2023-01-20T14:43:18.175Z,69.51
2023-01-20T14:45:46.389Z,70.22
2023-01-20T14:48:24.752Z,70.38
2023-01-20T14:51:02.446Z,70.57
2023-01-20T14:53:28.711Z,69.93
2023-01-20T14:55:58.478Z,69.78
2023-01-20T14:58:24.974Z,69.99
2023-01-20T15:00:51.616Z,70.51
2023-01-20T15:03:23.862Z,71.03
2023-01-20T15:05:58.201Z,71.33
2023-01-20T15:08:26.242Z,70.21
2023-01-20T15:11:11.684Z,70.49
2023-01-20T15:13:39.231Z,69.75
2023-01-20T15:16:16.981Z,70.05
2023-01-20T15:18:43.337Z,70.19
2023-01-20T15:21:20.557Z,70.02
2023-01-20T15:23:52.360Z,70.43
2023-01-20T15:26:24.315Z,71.26
2023-01-20T15:28:50.640Z,70.16
2023-01-20T15:31:17.156Z,71.19
2023-01-20T15:33:43.911Z,70.97
2023-01-20T15:36:18.959Z,70.41
2023-01-20T15:38:45.420Z,70.40
2023-01-20T15:41:12.732Z,70.12
2023-01-20T15:43:39.655Z,70.91
2023-01-20T15:46:10.695Z,70.55
2023-01-20T15:48:37.027Z,71.29
2023-01-20T15:51:03.607Z,71.12
2023-01-20T15:53:30.213Z,69.98
2023-01-20T15:55:56.617Z,68.73
2023-01-20T15:58:25.741Z,70.48
2023-01-20T16:00:52.271Z,70.28
2023-01-20T16:03:19.179Z,69.86
2023-01-20T16:05:47.443Z,71.14
2023-01-20T16:08:14.834Z,70.66
2023-01-20T16:10:41.188Z,71.14
2023-01-20T16:13:08.530Z,70.31
2023-01-20T16:15:35.248Z,70.29
2023-01-20T16:18:01.695Z,69.44
2023-01-20T16:20:28.185Z,69.89
2023-01-20T16:22:54.610Z,70.49
2023-01-20T16:25:20.959Z,69.41
2023-01-20T16:27:47.379Z,70.13
2023-01-20T16:30:18.385Z,68.86
2023-01-20T16:32:46.348Z,69.89
2023-01-20T16:35:16.557Z,69.69
2023-01-20T16:37:44.355Z,70.89
2023-01-20T16:40:15.258Z,70.54
2023-01-20T16:42:41.856Z,71.27
2023-01-20T16:45:23.135Z,70.09
2023-01-20T16:47:49.619Z,71.03
2023-01-20T16:50:16.329Z,71.81
2023-01-20T16:52:42.726Z,71.29
2023-01-20T16:55:09.835Z,71.48
2023-01-20T16:57:37.481Z,70.81
2023-01-20T17:00:07.327Z,70.48
2023-01-20T17:02:38.922Z,70.67
2023-01-20T17:05:06.895Z,71.04
2023-01-20T17:07:33.197Z,71.04
2023-01-20T17:09:59.579Z,70.05
2023-01-20T17:12:25.899Z,71.02
2023-01-20T17:14:52.208Z,69.70
2023-01-20T17:17:18.514Z,70.24
2023-01-20T17:19:44.811Z,70.54
2023-01-20T17:22:11.170Z,70.49
2023-01-20T17:24:39.200Z,69.99
2023-01-20T17:27:05.595Z,70.16
2023-01-20T17:29:31.983Z,70.14
2023-01-20T17:31:58.327Z,70.94
2023-01-20T17:34:24.695Z,70.66
2023-01-20T17:36:51.024Z,70.53
2023-01-20T17:39:17.304Z,71.17
2023-01-20T17:41:43.581Z,70.47
2023-01-20T17:44:09.892Z,70.42
2023-01-20T17:46:36.216Z,70.93
2023-01-20T17:49:04.697Z,71.60
2023-01-20T17:51:31.118Z,72.16
2023-01-20T17:53:58.094Z,71.13
2023-01-20T17:56:24.701Z,71.29
2023-01-20T17:58:51.199Z,71.04
2023-01-20T18:01:19.169Z,71.95
2023-01-20T18:03:45.886Z,71.32
2023-01-20T18:06:13.446Z,72.19
2023-01-20T18:08:40.083Z,72.11
2023-01-20T18:11:10.868Z,72.12
2023-01-20T18:13:37.761Z,71.33
2023-01-20T18:16:05.131Z,70.57
2023-01-20T18:18:31.635Z,70.47
2023-01-20T18:21:06.665Z,70.33
2023-01-20T18:23:32.981Z,70.69
2023-01-20T18:25:59.353Z,70.50
2023-01-20T18:28:25.836Z,71.02
2023-01-20T18:30:52.459Z,70.44
2023-01-20T18:33:18.817Z,71.11
2023-01-20T18:35:45.099Z,71.48
2023-01-20T18:38:11.385Z,70.49
2023-01-20T18:40:37.739Z,70.86
2023-01-20T18:43:04.039Z,71.09
2023-01-20T18:45:30.334Z,71.58
2023-01-20T18:47:56.694Z,71.99
2023-01-20T18:50:22.965Z,71.51
2023-01-20T18:52:49.287Z,69.77
2023-01-20T18:55:15.592Z,70.76
2023-01-20T18:57:41.888Z,71.17
2023-01-20T19:00:08.512Z,69.26
2023-01-20T19:02:34.995Z,69.48
2023-01-20T19:05:01.361Z,69.50
2023-01-20T19:07:27.659Z,70.27
2023-01-20T19:09:53.952Z,70.71
2023-01-20T19:12:20.254Z,69.56
2023-01-20T19:14:46.623Z,70.96
2023-01-20T19:17:12.923Z,71.04
2023-01-20T19:19:39.289Z,71.17
2023-01-20T19:22:05.624Z,72.03
2023-01-20T19:24:32.156Z,70.52
2023-01-20T19:27:00.245Z,71.73
2023-01-20T19:29:29.232Z,71.05
2023-01-20T19:31:55.895Z,70.27
2023-01-20T19:34:22.251Z,70.76
2023-01-20T19:36:48.546Z,71.62
2023-01-20T19:39:15.446Z,70.23
2023-01-20T19:41:43.107Z,71.98
2023-01-20T19:44:10.693Z,70.59
2023-01-20T19:46:41.113Z,71.96
2023-01-20T19:49:07.542Z,71.28
2023-01-20T19:51:33.938Z,70.99
2023-01-20T19:54:01.110Z,71.09
2023-01-20T19:56:30.176Z,70.48
2023-01-20T19:58:56.523Z,69.38
2023-01-20T20:01:41.132Z,70.21
2023-01-20T20:04:09.891Z,71.85
2023-01-20T20:06:37.861Z,69.52
2023-01-20T20:09:09.542Z,70.72
2023-01-20T20:11:35.994Z,71.70
2023-01-20T20:14:03.444Z,70.69
2023-01-20T20:16:31.043Z,70.37
2023-01-20T20:18:57.714Z,70.33
2023-01-20T20:21:24.285Z,71.21
2023-01-20T20:23:51.498Z,71.13
2023-01-20T20:26:18.268Z,70.22
2023-01-20T20:28:44.712Z,71.19
2023-01-20T20:31:11.083Z,71.19
2023-01-20T20:33:37.785Z,70.84
2023-01-20T20:36:08.251Z,70.76
2023-01-20T20:38:36.571Z,70.70
2023-01-20T20:41:03.849Z,70.95
2023-01-20T20:43:30.275Z,71.17
2023-01-20T20:46:00.310Z,70.79
2023-01-20T20:48:26.645Z,70.79
2023-01-20T20:50:53.441Z,70.81
2023-01-20T20:53:20.627Z,70.83
2023-01-20T20:55:46.979Z,71.73
2023-01-20T20:58:13.290Z,70.60
2023-01-20T21:00:39.837Z,70.69
2023-01-20T21:03:10.953Z,70.32
2023-01-20T21:05:37.252Z,69.20
2023-01-20T21:08:05.937Z,68.31
2023-01-20T21:10:32.250Z,70.13
2023-01-20T21:12:58.539Z,68.30
2023-01-20T21:15:24.981Z,69.97
2023-01-20T21:17:51.242Z,69.82
2023-01-20T21:20:17.949Z,70.50
2023-01-20T21:22:44.482Z,69.63
2023-01-20T21:25:10.819Z,70.26
2023-01-20T21:27:38.044Z,69.93
2023-01-20T21:30:04.610Z,69.60
2023-01-20T21:32:30.941Z,69.48
2023-01-20T21:34:58.850Z,68.99
2023-01-20T21:37:25.150Z,69.51
2023-01-20T21:39:51.422Z,70.01
2023-01-20T21:42:17.715Z,69.84
2023-01-20T21:44:44.241Z,69.48
2023-01-20T21:47:11.421Z,69.47
2023-01-20T21:49:56.141Z,68.98
2023-01-20T21:52:41.547Z,68.63
2023-01-20T21:55:08.930Z,68.64
2023-01-20T21:57:35.249Z,70.34
2023-01-20T22:00:02.229Z,70.65
2023-01-20T22:02:29.169Z,70.35
2023-01-20T22:04:55.939Z,70.38
2023-01-20T22:07:22.798Z,70.34
2023-01-20T22:09:49.249Z,70.69
2023-01-20T22:12:15.789Z,68.96
2023-01-20T22:14:42.213Z,69.63
2023-01-20T22:17:09.388Z,70.32
2023-01-20T22:19:35.846Z,69.73
2023-01-20T22:22:02.437Z,69.37
2023-01-20T22:24:29.204Z,68.34
2023-01-20T22:26:55.492Z,69.26
2023-01-20T22:29:21.795Z,70.50
2023-01-20T22:31:50.595Z,68.94
2023-01-20T22:34:17.104Z,68.68
2023-01-20T22:36:43.412Z,69.40
2023-01-20T22:39:10.766Z,69.75
2023-01-20T22:41:37.090Z,69.53
2023-01-20T22:44:03.419Z,69.05
2023-01-20T22:46:29.794Z,70.32
2023-01-20T22:48:57.015Z,68.99
2023-01-20T22:51:24.849Z,69.56
2023-01-20T22:53:55.104Z,69.87
2023-01-20T22:56:23.058Z,69.66
2023-01-20T22:58:49.581Z,70.14
2023-01-20T23:01:17.122Z,69.22
2023-01-20T23:03:43.771Z,69.67
2023-01-20T23:06:10.370Z,69.37
2023-01-20T23:08:36.706Z,70.96
2023-01-20T23:11:07.374Z,70.35
2023-01-20T23:13:35.120Z,70.18
2023-01-20T23:16:04.519Z,71.59
2023-01-20T23:18:31.275Z,71.08
2023-01-20T23:20:57.756Z,71.26
2023-01-20T23:23:24.878Z,71.02
2023-01-20T23:25:51.362Z,70.46
2023-01-20T23:28:17.656Z,69.83
2023-01-20T23:30:44.013Z,70.28
2023-01-20T23:33:10.322Z,70.12
2023-01-20T23:35:39.647Z,72.35
2023-01-20T23:38:06.977Z,71.52
2023-01-20T23:40:33.486Z,72.46
2023-01-20T23:42:59.833Z,72.19
2023-01-20T23:45:26.124Z,72.08
2023-01-20T23:47:52.489Z,72.18
2023-01-20T23:50:18.838Z,71.20
2023-01-20T23:52:45.148Z,71.26
2023-01-20T23:55:11.477Z,71.80
2023-01-20T23:57:37.821Z,72.09
